sensor_id;sensor_type;location;lat;lon;timestamp;P1;durP1;ratioP1;P2;durP2;ratioP2
47481;SDS011;33219;47.410;9.730;2023-03-24T00:01:06;6.28;;;4.25;;
47481;SDS011;33219;47.410;9.730;2023-03-24T00:03:33;7.30;;;4.22;;
47481;SDS011;33219;47.410;9.730;2023-03-24T00:06:02;6.65;;;4.30;;
47481;SDS011;33219;47.410;9.730;2023-03-24T00:08:33;5.92;;;3.60;;
47481;SDS011;33219;47.410;9.730;2023-03-24T00:11:03;4.47;;;3.25;;
47481;SDS011;33219;47.410;9.730;2023-03-24T00:13:33;4.80;;;3.42;;
47481;SDS011;33219;47.410;9.730;2023-03-24T00:16:05;6.65;;;3.72;;
47481;SDS011;33219;47.410;9.730;2023-03-24T00:18:37;6.95;;;4.33;;
47481;SDS011;33219;47.410;9.730;2023-03-24T00:21:06;6.75;;;4.12;;
47481;SDS011;33219;47.410;9.730;2023-03-24T00:23:36;7.33;;;4.20;;
47481;SDS011;33219;47.410;9.730;2023-03-24T00:26:06;8.53;;;4.15;;
47481;SDS011;33219;47.410;9.730;2023-03-24T00:28:37;4.62;;;2.83;;
47481;SDS011;33219;47.410;9.730;2023-03-24T00:31:05;6.40;;;3.98;;
47481;SDS011;33219;47.410;9.730;2023-03-24T00:33:33;7.30;;;4.20;;
47481;SDS011;33219;47.410;9.730;2023-03-24T00:36:05;6.22;;;4.22;;
47481;SDS011;33219;47.410;9.730;2023-03-24T00:38:36;5.42;;;3.95;;
47481;SDS011;33219;47.410;9.730;2023-03-24T00:41:05;6.20;;;4.10;;
47481;SDS011;33219;47.410;9.730;2023-03-24T00:43:35;7.28;;;4.20;;
47481;SDS011;33219;47.410;9.730;2023-03-24T00:46:04;5.47;;;3.98;;
47481;SDS011;33219;47.410;9.730;2023-03-24T00:48:35;7.95;;;4.40;;
47481;SDS011;33219;47.410;9.730;2023-03-24T00:51:05;7.08;;;3.87;;
47481;SDS011;33219;47.410;9.730;2023-03-24T00:53:35;7.55;;;4.30;;
47481;SDS011;33219;47.410;9.730;2023-03-24T00:56:05;6.85;;;4.75;;
47481;SDS011;33219;47.410;9.730;2023-03-24T00:58:33;6.03;;;4.50;;
47481;SDS011;33219;47.410;9.730;2023-03-24T01:01:01;6.87;;;4.80;;
47481;SDS011;33219;47.410;9.730;2023-03-24T01:03:31;7.00;;;4.25;;
47481;SDS011;33219;47.410;9.730;2023-03-24T01:06:00;7.58;;;4.58;;
47481;SDS011;33219;47.410;9.730;2023-03-24T01:08:30;6.72;;;4.25;;
47481;SDS011;33219;47.410;9.730;2023-03-24T01:10:58;7.28;;;4.50;;
47481;SDS011;33219;47.410;9.730;2023-03-24T01:13:27;6.95;;;4.00;;
47481;SDS011;33219;47.410;9.730;2023-03-24T01:15:55;9.35;;;5.22;;
47481;SDS011;33219;47.410;9.730;2023-03-24T01:18:23;7.58;;;4.28;;
47481;SDS011;33219;47.410;9.730;2023-03-24T01:20:52;5.03;;;3.87;;
47481;SDS011;33219;47.410;9.730;2023-03-24T01:23:21;6.50;;;4.20;;
47481;SDS011;33219;47.410;9.730;2023-03-24T01:25:50;5.97;;;3.47;;
47481;SDS011;33219;47.410;9.730;2023-03-24T01:28:22;4.87;;;3.60;;
47481;SDS011;33219;47.410;9.730;2023-03-24T01:30:50;5.60;;;3.70;;
47481;SDS011;33219;47.410;9.730;2023-03-24T01:33:19;5.67;;;3.58;;
47481;SDS011;33219;47.410;9.730;2023-03-24T01:35:47;4.80;;;3.35;;
47481;SDS011;33219;47.410;9.730;2023-03-24T01:38:15;5.30;;;3.30;;
47481;SDS011;33219;47.410;9.730;2023-03-24T01:40:44;4.35;;;3.33;;
47481;SDS011;33219;47.410;9.730;2023-03-24T01:43:19;4.65;;;3.15;;
47481;SDS011;33219;47.410;9.730;2023-03-24T01:48:23;4.03;;;2.90;;
47481;SDS011;33219;47.410;9.730;2023-03-24T01:51:06;4.22;;;3.10;;
47481;SDS011;33219;47.410;9.730;2023-03-24T01:53:36;5.37;;;3.80;;
47481;SDS011;33219;47.410;9.730;2023-03-24T01:56:06;6.60;;;4.83;;
47481;SDS011;33219;47.410;9.730;2023-03-24T01:58:36;6.95;;;4.70;;
47481;SDS011;33219;47.410;9.730;2023-03-24T02:01:06;7.58;;;5.83;;
47481;SDS011;33219;47.410;9.730;2023-03-24T02:03:35;6.65;;;5.33;;
47481;SDS011;33219;47.410;9.730;2023-03-24T02:06:04;7.15;;;5.25;;
47481;SDS011;33219;47.410;9.730;2023-03-24T02:08:36;8.10;;;4.97;;
47481;SDS011;33219;47.410;9.730;2023-03-24T02:11:07;6.85;;;4.65;;
47481;SDS011;33219;47.410;9.730;2023-03-24T02:13:35;6.30;;;4.80;;
47481;SDS011;33219;47.410;9.730;2023-03-24T02:16:18;7.80;;;4.70;;
47481;SDS011;33219;47.410;9.730;2023-03-24T02:19:00;5.40;;;4.47;;
47481;SDS011;33219;47.410;9.730;2023-03-24T02:30:15;7.85;;;4.75;;
47481;SDS011;33219;47.410;9.730;2023-03-24T02:43:51;7.12;;;4.50;;
47481;SDS011;33219;47.410;9.730;2023-03-24T02:46:39;6.95;;;4.17;;
47481;SDS011;33219;47.410;9.730;2023-03-24T02:49:09;8.13;;;4.60;;
47481;SDS011;33219;47.410;9.730;2023-03-24T02:56:54;6.97;;;4.58;;
47481;SDS011;33219;47.410;9.730;2023-03-24T02:59:34;9.18;;;5.58;;
47481;SDS011;33219;47.410;9.730;2023-03-24T03:02:16;6.33;;;4.80;;
47481;SDS011;33219;47.410;9.730;2023-03-24T03:04:53;6.90;;;4.85;;
47481;SDS011;33219;47.410;9.730;2023-03-24T03:07:26;7.72;;;4.80;;
47481;SDS011;33219;47.410;9.730;2023-03-24T03:10:04;8.13;;;4.55;;
47481;SDS011;33219;47.410;9.730;2023-03-24T03:12:34;7.53;;;4.55;;
47481;SDS011;33219;47.410;9.730;2023-03-24T03:15:07;7.65;;;4.75;;
47481;SDS011;33219;47.410;9.730;2023-03-24T03:17:38;9.03;;;5.00;;
47481;SDS011;33219;47.410;9.730;2023-03-24T03:20:18;8.78;;;5.42;;
47481;SDS011;33219;47.410;9.730;2023-03-24T03:22:50;9.20;;;5.22;;
47481;SDS011;33219;47.410;9.730;2023-03-24T03:25:24;7.97;;;5.40;;
47481;SDS011;33219;47.410;9.730;2023-03-24T03:27:49;8.20;;;4.97;;
47481;SDS011;33219;47.410;9.730;2023-03-24T03:30:26;8.55;;;5.17;;
47481;SDS011;33219;47.410;9.730;2023-03-24T03:33:00;8.90;;;5.50;;
47481;SDS011;33219;47.410;9.730;2023-03-24T03:35:30;7.42;;;5.47;;
47481;SDS011;33219;47.410;9.730;2023-03-24T03:41:01;8.50;;;4.83;;
47481;SDS011;33219;47.410;9.730;2023-03-24T03:43:30;7.58;;;5.10;;
47481;SDS011;33219;47.410;9.730;2023-03-24T03:45:59;6.40;;;4.75;;
47481;SDS011;33219;47.410;9.730;2023-03-24T03:48:27;9.35;;;5.53;;
47481;SDS011;33219;47.410;9.730;2023-03-24T03:50:55;10.85;;;6.40;;
47481;SDS011;33219;47.410;9.730;2023-03-24T03:53:25;8.30;;;5.30;;
47481;SDS011;33219;47.410;9.730;2023-03-24T03:55:53;9.53;;;5.87;;
47481;SDS011;33219;47.410;9.730;2023-03-24T03:58:21;10.23;;;5.95;;
47481;SDS011;33219;47.410;9.730;2023-03-24T04:00:49;8.78;;;5.55;;
47481;SDS011;33219;47.410;9.730;2023-03-24T04:03:25;6.97;;;5.65;;
47481;SDS011;33219;47.410;9.730;2023-03-24T04:05:58;7.35;;;5.50;;
47481;SDS011;33219;47.410;9.730;2023-03-24T04:08:47;6.95;;;4.97;;
47481;SDS011;33219;47.410;9.730;2023-03-24T04:14:10;6.80;;;4.62;;
47481;SDS011;33219;47.410;9.730;2023-03-24T04:16:41;5.85;;;4.35;;
47481;SDS011;33219;47.410;9.730;2023-03-24T04:24:46;5.15;;;3.52;;
47481;SDS011;33219;47.410;9.730;2023-03-24T04:32:24;4.67;;;3.20;;
47481;SDS011;33219;47.410;9.730;2023-03-24T04:34:57;6.62;;;3.80;;
47481;SDS011;33219;47.410;9.730;2023-03-24T04:37:28;4.20;;;3.30;;
47481;SDS011;33219;47.410;9.730;2023-03-24T04:42:34;5.90;;;3.95;;
47481;SDS011;33219;47.410;9.730;2023-03-24T04:45:06;8.70;;;5.12;;
47481;SDS011;33219;47.410;9.730;2023-03-24T04:47:37;8.23;;;4.95;;
47481;SDS011;33219;47.410;9.730;2023-03-24T04:52:37;6.80;;;5.20;;
47481;SDS011;33219;47.410;9.730;2023-03-24T04:57:44;9.25;;;6.85;;
47481;SDS011;33219;47.410;9.730;2023-03-24T05:00:12;13.78;;;8.88;;
47481;SDS011;33219;47.410;9.730;2023-03-24T05:02:41;11.20;;;7.60;;
47481;SDS011;33219;47.410;9.730;2023-03-24T05:05:10;8.13;;;6.72;;
47481;SDS011;33219;47.410;9.730;2023-03-24T05:07:39;8.75;;;7.20;;
47481;SDS011;33219;47.410;9.730;2023-03-24T05:10:07;9.20;;;7.08;;
47481;SDS011;33219;47.410;9.730;2023-03-24T05:12:35;9.00;;;7.30;;
47481;SDS011;33219;47.410;9.730;2023-03-24T05:15:02;10.60;;;7.30;;
47481;SDS011;33219;47.410;9.730;2023-03-24T05:17:31;12.00;;;7.37;;
47481;SDS011;33219;47.410;9.730;2023-03-24T05:19:59;10.98;;;7.83;;
47481;SDS011;33219;47.410;9.730;2023-03-24T05:22:27;10.00;;;7.53;;
47481;SDS011;33219;47.410;9.730;2023-03-24T05:24:54;9.83;;;7.15;;
47481;SDS011;33219;47.410;9.730;2023-03-24T05:27:22;10.03;;;7.33;;
47481;SDS011;33219;47.410;9.730;2023-03-24T05:29:50;11.85;;;7.25;;
47481;SDS011;33219;47.410;9.730;2023-03-24T05:32:18;8.35;;;7.15;;
47481;SDS011;33219;47.410;9.730;2023-03-24T05:34:45;10.05;;;7.35;;
47481;SDS011;33219;47.410;9.730;2023-03-24T05:37:13;8.48;;;6.70;;
47481;SDS011;33219;47.410;9.730;2023-03-24T05:39:42;8.70;;;6.30;;
47481;SDS011;33219;47.410;9.730;2023-03-24T05:42:10;9.83;;;6.62;;
47481;SDS011;33219;47.410;9.730;2023-03-24T05:44:37;8.35;;;6.37;;
47481;SDS011;33219;47.410;9.730;2023-03-24T05:47:05;9.23;;;6.35;;
47481;SDS011;33219;47.410;9.730;2023-03-24T05:49:33;9.43;;;6.67;;
47481;SDS011;33219;47.410;9.730;2023-03-24T05:52:01;9.43;;;5.90;;
47481;SDS011;33219;47.410;9.730;2023-03-24T05:54:29;9.23;;;6.80;;
47481;SDS011;33219;47.410;9.730;2023-03-24T05:56:58;10.08;;;6.87;;
47481;SDS011;33219;47.410;9.730;2023-03-24T05:59:26;8.33;;;6.75;;
47481;SDS011;33219;47.410;9.730;2023-03-24T06:01:55;11.00;;;7.83;;
47481;SDS011;33219;47.410;9.730;2023-03-24T06:04:23;10.28;;;6.90;;
47481;SDS011;33219;47.410;9.730;2023-03-24T06:06:52;10.72;;;7.42;;
47481;SDS011;33219;47.410;9.730;2023-03-24T06:09:20;13.75;;;8.10;;
47481;SDS011;33219;47.410;9.730;2023-03-24T06:11:48;11.97;;;8.68;;
47481;SDS011;33219;47.410;9.730;2023-03-24T06:14:17;9.95;;;7.55;;
47481;SDS011;33219;47.410;9.730;2023-03-24T06:16:45;11.18;;;7.87;;
47481;SDS011;33219;47.410;9.730;2023-03-24T06:19:14;11.12;;;7.92;;
47481;SDS011;33219;47.410;9.730;2023-03-24T06:21:42;11.45;;;7.72;;
47481;SDS011;33219;47.410;9.730;2023-03-24T06:24:12;12.73;;;7.45;;
47481;SDS011;33219;47.410;9.730;2023-03-24T06:26:41;11.65;;;7.53;;
47481;SDS011;33219;47.410;9.730;2023-03-24T06:29:15;11.35;;;7.55;;
47481;SDS011;33219;47.410;9.730;2023-03-24T06:31:53;9.38;;;7.22;;
47481;SDS011;33219;47.410;9.730;2023-03-24T06:34:22;9.43;;;6.90;;
47481;SDS011;33219;47.410;9.730;2023-03-24T06:36:56;9.60;;;6.65;;
47481;SDS011;33219;47.410;9.730;2023-03-24T06:39:26;9.55;;;6.90;;
47481;SDS011;33219;47.410;9.730;2023-03-24T06:47:36;8.80;;;6.33;;
47481;SDS011;33219;47.410;9.730;2023-03-24T06:50:30;8.18;;;5.90;;
47481;SDS011;33219;47.410;9.730;2023-03-24T06:53:09;12.90;;;6.87;;
47481;SDS011;33219;47.410;9.730;2023-03-24T06:55:56;8.03;;;5.80;;
47481;SDS011;33219;47.410;9.730;2023-03-24T07:01:59;7.15;;;5.60;;
47481;SDS011;33219;47.410;9.730;2023-03-24T07:22:59;8.80;;;5.25;;
47481;SDS011;33219;47.410;9.730;2023-03-24T07:25:34;8.75;;;5.40;;
47481;SDS011;33219;47.410;9.730;2023-03-24T07:30:56;9.75;;;5.83;;
47481;SDS011;33219;47.410;9.730;2023-03-24T07:36:45;5.40;;;3.70;;
47481;SDS011;33219;47.410;9.730;2023-03-24T08:20:34;9.60;;;5.78;;
47481;SDS011;33219;47.410;9.730;2023-03-24T08:23:09;8.33;;;5.53;;
47481;SDS011;33219;47.410;9.730;2023-03-24T08:28:43;10.38;;;5.35;;
47481;SDS011;33219;47.410;9.730;2023-03-24T08:31:23;7.72;;;5.45;;
47481;SDS011;33219;47.410;9.730;2023-03-24T08:36:58;9.25;;;6.30;;
47481;SDS011;33219;47.410;9.730;2023-03-24T08:52:29;6.55;;;5.03;;
47481;SDS011;33219;47.410;9.730;2023-03-24T08:54:58;8.55;;;5.17;;
47481;SDS011;33219;47.410;9.730;2023-03-24T09:12:32;8.73;;;5.75;;
47481;SDS011;33219;47.410;9.730;2023-03-24T09:15:07;9.35;;;6.05;;
47481;SDS011;33219;47.410;9.730;2023-03-24T09:17:47;7.50;;;5.80;;
47481;SDS011;33219;47.410;9.730;2023-03-24T09:20:22;10.58;;;6.15;;
47481;SDS011;33219;47.410;9.730;2023-03-24T09:23:02;8.03;;;5.42;;
47481;SDS011;33219;47.410;9.730;2023-03-24T09:25:40;8.30;;;5.60;;
47481;SDS011;33219;47.410;9.730;2023-03-24T09:28:48;9.18;;;6.20;;
47481;SDS011;33219;47.410;9.730;2023-03-24T09:40:43;9.55;;;6.45;;
47481;SDS011;33219;47.410;9.730;2023-03-24T09:43:30;8.28;;;5.83;;
47481;SDS011;33219;47.410;9.730;2023-03-24T09:46:01;8.28;;;5.65;;
47481;SDS011;33219;47.410;9.730;2023-03-24T09:48:50;10.10;;;6.33;;
47481;SDS011;33219;47.410;9.730;2023-03-24T10:03:31;6.37;;;4.67;;
47481;SDS011;33219;47.410;9.730;2023-03-24T10:06:10;6.10;;;3.77;;
47481;SDS011;33219;47.410;9.730;2023-03-24T10:31:59;7.40;;;5.20;;
47481;SDS011;33219;47.410;9.730;2023-03-24T10:34:31;7.22;;;5.62;;
47481;SDS011;33219;47.410;9.730;2023-03-24T10:46:13;5.47;;;4.17;;
47481;SDS011;33219;47.410;9.730;2023-03-24T10:48:44;8.43;;;5.70;;
47481;SDS011;33219;47.410;9.730;2023-03-24T10:51:19;7.90;;;5.60;;
47481;SDS011;33219;47.410;9.730;2023-03-24T10:56:39;7.80;;;5.72;;
47481;SDS011;33219;47.410;9.730;2023-03-24T10:59:24;7.37;;;5.33;;
47481;SDS011;33219;47.410;9.730;2023-03-24T11:04:39;7.62;;;5.67;;
47481;SDS011;33219;47.410;9.730;2023-03-24T11:07:16;7.75;;;5.72;;
47481;SDS011;33219;47.410;9.730;2023-03-24T11:12:36;6.83;;;5.10;;
47481;SDS011;33219;47.410;9.730;2023-03-24T11:15:16;7.17;;;5.30;;
47481;SDS011;33219;47.410;9.730;2023-03-24T11:17:47;8.33;;;5.90;;
47481;SDS011;33219;47.410;9.730;2023-03-24T11:21:04;7.97;;;5.25;;
47481;SDS011;33219;47.410;9.730;2023-03-24T11:38:59;9.38;;;6.80;;
47481;SDS011;33219;47.410;9.730;2023-03-24T11:41:33;8.95;;;7.05;;
47481;SDS011;33219;47.410;9.730;2023-03-24T11:46:42;9.90;;;7.08;;
47481;SDS011;33219;47.410;9.730;2023-03-24T11:49:12;9.47;;;7.17;;
47481;SDS011;33219;47.410;9.730;2023-03-24T11:51:43;11.12;;;7.70;;
47481;SDS011;33219;47.410;9.730;2023-03-24T11:54:14;12.68;;;7.92;;
47481;SDS011;33219;47.410;9.730;2023-03-24T11:56:45;9.25;;;6.92;;
47481;SDS011;33219;47.410;9.730;2023-03-24T12:05:22;10.45;;;7.45;;
47481;SDS011;33219;47.410;9.730;2023-03-24T12:08:12;10.13;;;6.72;;
47481;SDS011;33219;47.410;9.730;2023-03-24T12:10:56;9.33;;;6.80;;
47481;SDS011;33219;47.410;9.730;2023-03-24T12:13:48;9.30;;;6.90;;
47481;SDS011;33219;47.410;9.730;2023-03-24T12:16:24;9.35;;;7.40;;
47481;SDS011;33219;47.410;9.730;2023-03-24T12:21:52;13.48;;;7.65;;
47481;SDS011;33219;47.410;9.730;2023-03-24T12:27:06;10.70;;;7.47;;
47481;SDS011;33219;47.410;9.730;2023-03-24T12:29:39;9.28;;;7.30;;
47481;SDS011;33219;47.410;9.730;2023-03-24T12:37:38;8.73;;;6.67;;
47481;SDS011;33219;47.410;9.730;2023-03-24T12:43:03;8.78;;;7.20;;
47481;SDS011;33219;47.410;9.730;2023-03-24T12:45:32;10.28;;;7.28;;
47481;SDS011;33219;47.410;9.730;2023-03-24T12:48:09;10.60;;;6.92;;
47481;SDS011;33219;47.410;9.730;2023-03-24T12:53:32;10.15;;;7.72;;
47481;SDS011;33219;47.410;9.730;2023-03-24T12:56:12;9.70;;;7.60;;
47481;SDS011;33219;47.410;9.730;2023-03-24T12:58:40;10.50;;;8.03;;
47481;SDS011;33219;47.410;9.730;2023-03-24T13:01:24;9.88;;;7.53;;
47481;SDS011;33219;47.410;9.730;2023-03-24T13:03:58;10.23;;;7.28;;
47481;SDS011;33219;47.410;9.730;2023-03-24T13:09:07;9.33;;;6.60;;
47481;SDS011;33219;47.410;9.730;2023-03-24T13:11:43;9.13;;;5.50;;
47481;SDS011;33219;47.410;9.730;2023-03-24T13:14:27;7.75;;;4.70;;
47481;SDS011;33219;47.410;9.730;2023-03-24T13:17:07;5.67;;;4.20;;
47481;SDS011;33219;47.410;9.730;2023-03-24T13:19:36;4.95;;;3.87;;
47481;SDS011;33219;47.410;9.730;2023-03-24T13:22:05;5.72;;;3.90;;
47481;SDS011;33219;47.410;9.730;2023-03-24T13:27:44;5.40;;;4.30;;
47481;SDS011;33219;47.410;9.730;2023-03-24T13:30:36;8.08;;;4.83;;
47481;SDS011;33219;47.410;9.730;2023-03-24T13:33:45;9.55;;;5.30;;
47481;SDS011;33219;47.410;9.730;2023-03-24T13:35:55;8.48;;;4.97;;
47481;SDS011;33219;47.410;9.730;2023-03-24T13:38:27;8.50;;;4.72;;
47481;SDS011;33219;47.410;9.730;2023-03-24T13:40:59;7.50;;;4.70;;
47481;SDS011;33219;47.410;9.730;2023-03-24T13:43:28;9.78;;;4.90;;
47481;SDS011;33219;47.410;9.730;2023-03-24T13:45:59;10.32;;;5.45;;
47481;SDS011;33219;47.410;9.730;2023-03-24T13:48:30;7.25;;;4.55;;
47481;SDS011;33219;47.410;9.730;2023-03-24T13:51:13;8.00;;;4.40;;
47481;SDS011;33219;47.410;9.730;2023-03-24T13:53:56;6.20;;;4.20;;
47481;SDS011;33219;47.410;9.730;2023-03-24T13:56:32;7.08;;;4.90;;
47481;SDS011;33219;47.410;9.730;2023-03-24T14:06:52;7.50;;;4.50;;
47481;SDS011;33219;47.410;9.730;2023-03-24T14:09:28;9.33;;;5.33;;
47481;SDS011;33219;47.410;9.730;2023-03-24T14:14:35;9.78;;;5.85;;
47481;SDS011;33219;47.410;9.730;2023-03-24T14:19:41;8.78;;;5.08;;
47481;SDS011;33219;47.410;9.730;2023-03-24T14:22:23;8.43;;;5.70;;
47481;SDS011;33219;47.410;9.730;2023-03-24T14:27:41;8.48;;;4.50;;
47481;SDS011;33219;47.410;9.730;2023-03-24T14:33:20;6.67;;;4.85;;
47481;SDS011;33219;47.410;9.730;2023-03-24T14:35:44;6.42;;;4.95;;
47481;SDS011;33219;47.410;9.730;2023-03-24T14:40:45;8.40;;;4.72;;
47481;SDS011;33219;47.410;9.730;2023-03-24T14:51:11;7.53;;;4.92;;
47481;SDS011;33219;47.410;9.730;2023-03-24T14:53:50;7.42;;;4.65;;
47481;SDS011;33219;47.410;9.730;2023-03-24T15:05:53;5.70;;;4.10;;
47481;SDS011;33219;47.410;9.730;2023-03-24T15:08:23;8.60;;;4.83;;
47481;SDS011;33219;47.410;9.730;2023-03-24T15:10:53;6.00;;;4.72;;
47481;SDS011;33219;47.410;9.730;2023-03-24T15:13:27;6.75;;;4.08;;
47481;SDS011;33219;47.410;9.730;2023-03-24T15:18:44;5.17;;;3.65;;
47481;SDS011;33219;47.410;9.730;2023-03-24T15:21:20;5.60;;;4.08;;
47481;SDS011;33219;47.410;9.730;2023-03-24T15:23:47;7.20;;;3.83;;
47481;SDS011;33219;47.410;9.730;2023-03-24T15:26:15;5.60;;;3.75;;
47481;SDS011;33219;47.410;9.730;2023-03-24T15:28:46;6.10;;;3.47;;
47481;SDS011;33219;47.410;9.730;2023-03-24T15:31:22;8.23;;;4.50;;
47481;SDS011;33219;47.410;9.730;2023-03-24T15:33:52;6.53;;;4.35;;
47481;SDS011;33219;47.410;9.730;2023-03-24T15:36:37;5.97;;;4.62;;
47481;SDS011;33219;47.410;9.730;2023-03-24T15:39:18;7.00;;;4.40;;
47481;SDS011;33219;47.410;9.730;2023-03-24T15:41:48;7.78;;;5.65;;
47481;SDS011;33219;47.410;9.730;2023-03-24T15:44:18;6.33;;;4.83;;
47481;SDS011;33219;47.410;9.730;2023-03-24T15:46:47;5.67;;;3.75;;
47481;SDS011;33219;47.410;9.730;2023-03-24T15:49:24;4.05;;;2.80;;
47481;SDS011;33219;47.410;9.730;2023-03-24T15:51:55;4.03;;;2.60;;
47481;SDS011;33219;47.410;9.730;2023-03-24T15:54:35;3.95;;;2.83;;
47481;SDS011;33219;47.410;9.730;2023-03-24T15:57:21;6.17;;;3.42;;
47481;SDS011;33219;47.410;9.730;2023-03-24T16:02:30;3.62;;;2.70;;
47481;SDS011;33219;47.410;9.730;2023-03-24T16:04:59;3.85;;;2.50;;
47481;SDS011;33219;47.410;9.730;2023-03-24T16:07:31;3.72;;;2.45;;
47481;SDS011;33219;47.410;9.730;2023-03-24T16:10:01;3.87;;;2.50;;
47481;SDS011;33219;47.410;9.730;2023-03-24T16:12:32;3.58;;;1.80;;
47481;SDS011;33219;47.410;9.730;2023-03-24T16:15:03;4.62;;;2.47;;
47481;SDS011;33219;47.410;9.730;2023-03-24T16:17:32;5.83;;;2.80;;
47481;SDS011;33219;47.410;9.730;2023-03-24T16:19:59;4.08;;;2.70;;
47481;SDS011;33219;47.410;9.730;2023-03-24T16:22:28;3.98;;;2.77;;
47481;SDS011;33219;47.410;9.730;2023-03-24T16:24:56;5.08;;;3.15;;
47481;SDS011;33219;47.410;9.730;2023-03-24T16:27:24;4.30;;;2.30;;
47481;SDS011;33219;47.410;9.730;2023-03-24T16:29:51;4.47;;;2.20;;
47481;SDS011;33219;47.410;9.730;2023-03-24T16:32:20;4.08;;;2.33;;
47481;SDS011;33219;47.410;9.730;2023-03-24T16:34:48;4.15;;;2.10;;
47481;SDS011;33219;47.410;9.730;2023-03-24T16:37:15;4.70;;;2.22;;
47481;SDS011;33219;47.410;9.730;2023-03-24T16:39:43;3.55;;;2.50;;
47481;SDS011;33219;47.410;9.730;2023-03-24T16:42:11;5.83;;;3.20;;
47481;SDS011;33219;47.410;9.730;2023-03-24T16:44:39;9.85;;;6.00;;
47481;SDS011;33219;47.410;9.730;2023-03-24T16:47:09;10.35;;;4.97;;
47481;SDS011;33219;47.410;9.730;2023-03-24T16:49:36;8.70;;;5.47;;
47481;SDS011;33219;47.410;9.730;2023-03-24T16:52:04;9.08;;;5.70;;
47481;SDS011;33219;47.410;9.730;2023-03-24T16:54:34;7.87;;;5.30;;
47481;SDS011;33219;47.410;9.730;2023-03-24T16:57:01;6.58;;;4.05;;
47481;SDS011;33219;47.410;9.730;2023-03-24T16:59:29;6.28;;;3.95;;
47481;SDS011;33219;47.410;9.730;2023-03-24T17:01:59;5.30;;;3.12;;
47481;SDS011;33219;47.410;9.730;2023-03-24T17:04:28;5.25;;;3.50;;
47481;SDS011;33219;47.410;9.730;2023-03-24T17:06:58;4.53;;;3.42;;
47481;SDS011;33219;47.410;9.730;2023-03-24T17:09:26;6.03;;;3.75;;
47481;SDS011;33219;47.410;9.730;2023-03-24T17:11:56;6.22;;;4.05;;
47481;SDS011;33219;47.410;9.730;2023-03-24T17:14:26;5.97;;;3.70;;
47481;SDS011;33219;47.410;9.730;2023-03-24T17:16:55;6.90;;;3.80;;
47481;SDS011;33219;47.410;9.730;2023-03-24T17:19:24;6.12;;;3.20;;
47481;SDS011;33219;47.410;9.730;2023-03-24T17:21:57;5.25;;;3.42;;
47481;SDS011;33219;47.410;9.730;2023-03-24T17:24:27;4.90;;;3.33;;
47481;SDS011;33219;47.410;9.730;2023-03-24T17:26:57;6.58;;;3.77;;
47481;SDS011;33219;47.410;9.730;2023-03-24T17:29:26;7.58;;;4.50;;
47481;SDS011;33219;47.410;9.730;2023-03-24T17:31:53;5.20;;;3.55;;
47481;SDS011;33219;47.410;9.730;2023-03-24T17:34:21;8.78;;;3.95;;
47481;SDS011;33219;47.410;9.730;2023-03-24T17:36:49;5.33;;;3.08;;
47481;SDS011;33219;47.410;9.730;2023-03-24T17:39:17;5.25;;;2.62;;
47481;SDS011;33219;47.410;9.730;2023-03-24T17:41:48;5.95;;;3.15;;
47481;SDS011;33219;47.410;9.730;2023-03-24T17:44:16;4.35;;;2.75;;
47481;SDS011;33219;47.410;9.730;2023-03-24T17:46:44;4.10;;;2.70;;
47481;SDS011;33219;47.410;9.730;2023-03-24T17:49:12;3.95;;;2.42;;
47481;SDS011;33219;47.410;9.730;2023-03-24T17:51:40;4.28;;;2.65;;
47481;SDS011;33219;47.410;9.730;2023-03-24T17:54:11;3.62;;;2.65;;
47481;SDS011;33219;47.410;9.730;2023-03-24T17:56:40;3.87;;;2.98;;
47481;SDS011;33219;47.410;9.730;2023-03-24T17:59:08;5.85;;;3.45;;
47481;SDS011;33219;47.410;9.730;2023-03-24T18:01:36;3.52;;;2.72;;
47481;SDS011;33219;47.410;9.730;2023-03-24T18:04:05;4.97;;;3.70;;
47481;SDS011;33219;47.410;9.730;2023-03-24T18:06:32;4.95;;;3.98;;
47481;SDS011;33219;47.410;9.730;2023-03-24T18:09:00;6.78;;;4.20;;
47481;SDS011;33219;47.410;9.730;2023-03-24T18:11:28;5.78;;;4.50;;
47481;SDS011;33219;47.410;9.730;2023-03-24T18:13:56;4.60;;;3.30;;
47481;SDS011;33219;47.410;9.730;2023-03-24T18:16:24;3.33;;;2.40;;
47481;SDS011;33219;47.410;9.730;2023-03-24T18:18:54;3.85;;;2.45;;
47481;SDS011;33219;47.410;9.730;2023-03-24T18:21:22;4.42;;;2.60;;
47481;SDS011;33219;47.410;9.730;2023-03-24T18:23:50;6.08;;;3.95;;
47481;SDS011;33219;47.410;9.730;2023-03-24T18:26:18;6.70;;;4.20;;
47481;SDS011;33219;47.410;9.730;2023-03-24T18:28:47;4.70;;;3.62;;
47481;SDS011;33219;47.410;9.730;2023-03-24T18:37:05;6.58;;;3.87;;
47481;SDS011;33219;47.410;9.730;2023-03-24T18:39:34;5.28;;;3.33;;
47481;SDS011;33219;47.410;9.730;2023-03-24T18:42:03;5.83;;;3.40;;
47481;SDS011;33219;47.410;9.730;2023-03-24T18:44:31;4.00;;;2.58;;
47481;SDS011;33219;47.410;9.730;2023-03-24T18:47:01;4.28;;;3.12;;
47481;SDS011;33219;47.410;9.730;2023-03-24T18:49:30;6.30;;;3.50;;
47481;SDS011;33219;47.410;9.730;2023-03-24T18:51:58;6.25;;;4.05;;
47481;SDS011;33219;47.410;9.730;2023-03-24T18:54:26;4.50;;;3.20;;
47481;SDS011;33219;47.410;9.730;2023-03-24T18:56:54;6.50;;;4.37;;
47481;SDS011;33219;47.410;9.730;2023-03-24T18:59:22;5.55;;;3.95;;
47481;SDS011;33219;47.410;9.730;2023-03-24T19:01:52;4.35;;;3.37;;
47481;SDS011;33219;47.410;9.730;2023-03-24T19:04:20;4.05;;;1.87;;
47481;SDS011;33219;47.410;9.730;2023-03-24T19:06:48;3.05;;;1.77;;
47481;SDS011;33219;47.410;9.730;2023-03-24T19:09:16;2.60;;;1.87;;
47481;SDS011;33219;47.410;9.730;2023-03-24T19:11:46;4.00;;;2.35;;
47481;SDS011;33219;47.410;9.730;2023-03-24T19:14:15;3.72;;;2.50;;
47481;SDS011;33219;47.410;9.730;2023-03-24T19:16:43;5.20;;;3.10;;
47481;SDS011;33219;47.410;9.730;2023-03-24T19:19:12;6.35;;;4.03;;
47481;SDS011;33219;47.410;9.730;2023-03-24T19:21:41;18.60;;;8.75;;
47481;SDS011;33219;47.410;9.730;2023-03-24T19:24:11;19.07;;;7.75;;
47481;SDS011;33219;47.410;9.730;2023-03-24T19:26:40;23.20;;;9.05;;
47481;SDS011;33219;47.410;9.730;2023-03-24T19:29:11;32.98;;;12.10;;
47481;SDS011;33219;47.410;9.730;2023-03-24T19:31:39;20.02;;;10.80;;
47481;SDS011;33219;47.410;9.730;2023-03-24T19:36:51;11.18;;;6.12;;
47481;SDS011;33219;47.410;9.730;2023-03-24T19:39:21;4.78;;;3.00;;
47481;SDS011;33219;47.410;9.730;2023-03-24T19:41:51;13.62;;;6.58;;
47481;SDS011;33219;47.410;9.730;2023-03-24T19:44:19;4.97;;;2.62;;
47481;SDS011;33219;47.410;9.730;2023-03-24T19:46:47;3.67;;;1.98;;
47481;SDS011;33219;47.410;9.730;2023-03-24T19:49:15;1.12;;;1.00;;
47481;SDS011;33219;47.410;9.730;2023-03-24T19:51:43;2.45;;;1.10;;
47481;SDS011;33219;47.410;9.730;2023-03-24T19:54:12;0.82;;;0.70;;
47481;SDS011;33219;47.410;9.730;2023-03-24T19:56:40;2.70;;;1.20;;
47481;SDS011;33219;47.410;9.730;2023-03-24T19:59:08;1.95;;;1.17;;
47481;SDS011;33219;47.410;9.730;2023-03-24T20:01:36;1.92;;;1.22;;
47481;SDS011;33219;47.410;9.730;2023-03-24T20:04:04;2.83;;;1.40;;
47481;SDS011;33219;47.410;9.730;2023-03-24T20:06:32;1.52;;;1.15;;
47481;SDS011;33219;47.410;9.730;2023-03-24T20:09:02;1.77;;;1.00;;
47481;SDS011;33219;47.410;9.730;2023-03-24T20:11:30;1.40;;;0.90;;
47481;SDS011;33219;47.410;9.730;2023-03-24T20:13:58;1.35;;;0.95;;
47481;SDS011;33219;47.410;9.730;2023-03-24T20:16:26;1.75;;;1.10;;
47481;SDS011;33219;47.410;9.730;2023-03-24T20:18:54;3.25;;;1.60;;
47481;SDS011;33219;47.410;9.730;2023-03-24T20:21:22;2.12;;;1.35;;
47481;SDS011;33219;47.410;9.730;2023-03-24T20:23:52;2.50;;;1.45;;
47481;SDS011;33219;47.410;9.730;2023-03-24T20:26:20;2.60;;;1.70;;
47481;SDS011;33219;47.410;9.730;2023-03-24T20:28:48;3.27;;;1.70;;
47481;SDS011;33219;47.410;9.730;2023-03-24T20:31:16;3.10;;;1.98;;
47481;SDS011;33219;47.410;9.730;2023-03-24T20:33:44;2.72;;;1.65;;